Time;durP1;ratioP1;P1;durP2;ratioP2;P2;SDS_P1;SDS_P2;PMS_P1;PMS_P2;Temp;Humidity;BMP_temperature;BMP_pressure;BME280_temperature;BME280_humidity;BME280_pressure;Samples;Min_cycle;Max_cycle;Signal;HPM_P1;HPM_P2
2021/07/25 00:00:42;;;;;;;24.15;12.63;;;;;;;20.40;51.42;100467.86;1736111;80;25802;-72
2021/07/25 00:03:09;;;;;;;22.85;12.28;;;;;;;20.36;51.58;100462.29;1729422;80;25382;-73
2021/07/25 00:05:36;;;;;;;20.45;12.18;;;;;;;20.32;51.68;100459.47;1722964;80;27373;-72
2021/07/25 00:08:02;;;;;;;20.27;11.90;;;;;;;20.28;51.83;100451.20;1744606;80;25860;-72
2021/07/25 00:10:28;;;;;;;21.68;12.10;;;;;;;20.25;51.93;100450.61;1724808;80;25842;-72
2021/07/25 00:12:54;;;;;;;20.65;12.63;;;;;;;20.19;51.99;100443.84;1729171;80;26442;-71
2021/07/25 00:15:21;;;;;;;21.75;13.38;;;;;;;20.12;52.16;100439.92;1736110;80;25872;-72
2021/07/25 00:17:47;;;;;;;17.60;11.95;;;;;;;20.06;52.37;100433.64;1725337;80;27332;-72
2021/07/25 00:20:13;;;;;;;17.55;12.25;;;;;;;20.03;52.47;100433.91;1725668;80;25988;-71
2021/07/25 00:22:41;;;;;;;14.78;11.57;;;;;;;20.02;52.62;100433.55;1728723;80;25776;-73
2021/07/25 00:25:09;;;;;;;16.62;11.22;;;;;;;19.99;52.73;100429.73;1744340;80;26378;-73
2021/07/25 00:27:41;;;;;;;20.97;11.83;;;;;;;19.96;52.82;100429.98;1736750;81;25782;-73
2021/07/25 00:30:12;;;;;;;17.95;12.33;;;;;;;19.94;52.89;100426.53;1731412;80;27545;-73
2021/07/25 00:32:40;;;;;;;21.52;11.30;;;;;;;19.88;53.03;100417.05;1726534;80;25936;-73
2021/07/25 00:35:09;;;;;;;23.10;13.13;;;;;;;19.86;53.12;100411.38;1727918;80;26490;-73
2021/07/25 00:37:35;;;;;;;21.00;13.60;;;;;;;19.83;53.25;100410.27;1728327;80;25806;-73
2021/07/25 00:40:03;;;;;;;19.10;12.25;;;;;;;19.81;53.32;100406.33;1732444;80;25797;-73
2021/07/25 00:42:39;;;;;;;19.45;12.47;;;;;;;19.79;53.44;100417.83;1717573;81;27505;-73
2021/07/25 00:45:07;;;;;;;17.42;12.28;;;;;;;19.77;53.50;100411.16;1727431;80;25463;-72
2021/07/25 00:47:35;;;;;;;17.75;12.13;;;;;;;19.74;53.59;100415.50;1729463;80;25777;-72
2021/07/25 00:50:02;;;;;;;19.87;13.22;;;;;;;19.73;53.66;100412.91;1707201;80;25860;-72
2021/07/25 00:52:30;;;;;;;20.75;12.63;;;;;;;19.69;53.73;100408.23;1723884;80;25786;-72
2021/07/25 00:54:56;;;;;;;20.55;12.82;;;;;;;19.64;53.89;100409.13;1721967;80;27365;-72
2021/07/25 00:57:21;;;;;;;18.45;12.35;;;;;;;19.62;53.95;100404.31;1729431;80;26074;-72
2021/07/25 00:59:47;;;;;;;21.75;11.57;;;;;;;19.60;54.06;100406.30;1727371;80;25873;-71
2021/07/25 01:02:13;;;;;;;21.85;12.88;;;;;;;19.59;54.14;100405.06;1736012;80;26519;-71
2021/07/25 01:04:53;;;;;;;20.62;12.58;;;;;;;19.57;54.22;100405.69;1721647;80;25865;-73
2021/07/25 01:07:29;;;;;;;19.40;12.93;;;;;;;19.54;54.22;100397.30;1733386;80;27487;-73
2021/07/25 01:10:06;;;;;;;18.42;12.68;;;;;;;19.51;54.36;100393.94;1726881;80;25820;-71
2021/07/25 01:12:49;;;;;;;17.67;12.33;;;;;;;19.49;54.42;100389.13;1722710;81;25699;-71
2021/07/25 01:15:23;;;;;;;16.80;13.03;;;;;;;19.44;54.58;100384.95;1724079;80;26401;-71
2021/07/25 01:17:54;;;;;;;26.97;13.03;;;;;;;19.43;54.65;100384.58;1726724;80;25742;-71
2021/07/25 01:20:18;;;;;;;27.85;12.95;;;;;;;19.42;54.71;100384.71;1739340;80;27393;-71
2021/07/25 01:22:53;;;;;;;17.90;11.68;;;;;;;19.38;54.79;100375.95;1729498;80;25801;-71
2021/07/25 01:25:18;;;;;;;23.95;12.43;;;;;;;19.36;54.81;100374.35;1728562;80;25767;-71
2021/07/25 01:27:52;;;;;;;21.52;13.13;;;;;;;19.34;54.91;100372.27;1726713;80;26409;-71
2021/07/25 01:30:25;;;;;;;25.68;13.85;;;;;;;19.30;55.05;100373.02;1735762;80;25798;-72
2021/07/25 01:32:56;;;;;;;26.27;13.43;;;;;;;19.26;55.14;100363.39;1739203;80;27378;-71
2021/07/25 01:35:25;;;;;;;25.52;13.88;;;;;;;19.24;55.23;100369.95;1721200;81;25723;-71
2021/07/25 01:37:52;;;;;;;24.57;13.03;;;;;;;19.20;55.35;100363.05;1715026;80;26185;-72
2021/07/25 01:40:24;;;;;;;19.90;13.22;;;;;;;19.17;55.45;100356.50;1713707;80;25827;-72
2021/07/25 01:42:51;;;;;;;34.90;13.78;;;;;;;19.04;55.56;100341.23;1741787;80;25771;-72
2021/07/25 01:45:18;;;;;;;18.70;12.65;;;;;;;19.12;55.64;100355.53;1730126;80;27374;-71
2021/07/25 01:47:44;;;;;;;21.60;13.70;;;;;;;19.09;55.70;100353.07;1717448;82;25877;-71
2021/07/25 01:50:12;;;;;;;22.67;12.85;;;;;;;19.06;55.82;100358.27;1702278;81;25806;-71
2021/07/25 01:52:38;;;;;;;19.02;12.80;;;;;;;19.03;55.93;100364.45;1731276;80;25776;-71
2021/07/25 01:55:05;;;;;;;20.55;13.10;;;;;;;18.99;55.98;100367.91;1723351;80;25922;-72
2021/07/25 01:57:31;;;;;;;30.40;14.03;;;;;;;18.95;56.15;100359.65;1728886;80;28088;-71
2021/07/25 01:59:58;;;;;;;22.17;13.03;;;;;;;18.95;56.24;100364.22;1729308;80;25905;-71
2021/07/25 02:02:24;;;;;;;22.52;13.78;;;;;;;18.93;56.36;100359.41;1733645;81;26022;-72
2021/07/25 02:04:50;;;;;;;23.62;13.65;;;;;;;18.92;56.41;100354.47;1726041;80;26631;-71
2021/07/25 02:07:16;;;;;;;24.63;14.83;;;;;;;18.90;56.50;100357.81;1726817;80;26403;-71
2021/07/25 02:09:42;;;;;;;19.32;12.78;;;;;;;18.88;56.57;100354.36;1713627;82;28186;-71
2021/07/25 02:12:10;;;;;;;23.50;14.13;;;;;;;18.84;56.63;100348.81;1719739;81;26723;-71
2021/07/25 02:14:38;;;;;;;24.43;13.72;;;;;;;18.80;56.76;100350.91;1741049;81;25971;-71
2021/07/25 02:17:06;;;;;;;22.87;13.00;;;;;;;18.77;56.83;100348.95;1737534;80;25841;-71
2021/07/25 02:19:32;;;;;;;22.17;14.47;;;;;;;18.76;56.90;100356.72;1720598;81;25927;-71
2021/07/25 02:21:59;;;;;;;20.27;13.05;;;;;;;18.73;57.03;100354.25;1723442;81;27382;-71
2021/07/25 02:24:25;;;;;;;19.62;13.75;;;;;;;18.72;57.14;100353.39;1738627;80;25850;-71
2021/07/25 02:26:52;;;;;;;20.92;13.72;;;;;;;18.72;57.24;100356.60;1731701;80;26020;-71
2021/07/25 02:29:19;;;;;;;21.37;13.88;;;;;;;18.70;57.31;100361.30;1732512;81;25824;-71
2021/07/25 02:31:45;;;;;;;23.25;13.85;;;;;;;18.67;57.41;100365.62;1738464;80;25728;-71
2021/07/25 02:34:11;;;;;;;21.52;13.50;;;;;;;18.64;57.44;100369.45;1733746;81;28022;-74
2021/07/25 02:36:38;;;;;;;32.75;14.87;;;;;;;18.63;57.57;100370.44;1722593;81;25863;-73
2021/07/25 02:39:06;;;;;;;21.52;14.70;;;;;;;18.61;57.66;100363.41;1736592;80;25834;-73
2021/07/25 02:41:32;;;;;;;24.98;13.88;;;;;;;18.58;57.70;100372.63;1735133;80;26502;-73
2021/07/25 02:43:58;;;;;;;20.12;13.95;;;;;;;18.55;57.78;100372.87;1745084;81;25737;-73
2021/07/25 02:46:24;;;;;;;20.27;14.05;;;;;;;18.55;57.91;100365.22;1722582;80;27383;-74
2021/07/25 02:48:50;;;;;;;19.65;14.55;;;;;;;18.53;57.96;100368.06;1729705;80;25797;-71
2021/07/25 02:51:16;;;;;;;20.08;13.20;;;;;;;18.52;58.05;100365.47;1732832;80;25778;-71
2021/07/25 02:53:41;;;;;;;25.43;14.33;;;;;;;18.49;58.11;100362.02;1728432;81;25799;-73
2021/07/25 02:56:07;;;;;;;20.95;15.08;;;;;;;18.47;58.17;100359.92;1732113;80;25855;-74
2021/07/25 02:58:33;;;;;;;24.27;14.73;;;;;;;18.43;58.25;100358.44;1746624;80;28132;-74
2021/07/25 03:00:59;;;;;;;21.15;15.48;;;;;;;18.41;58.34;100349.56;1735463;80;25973;-74
2021/07/25 03:03:25;;;;;;;24.52;13.78;;;;;;;18.40;58.42;100359.18;1738242;80;25859;-74
2021/07/25 03:05:50;;;;;;;20.90;13.68;;;;;;;18.38;58.46;100359.30;1726684;80;26043;-73
2021/07/25 03:08:16;;;;;;;24.30;14.80;;;;;;;18.36;58.58;100363.13;1717517;81;25881;-73
2021/07/25 03:10:43;;;;;;;25.00;14.93;;;;;;;18.32;58.62;100358.44;1730166;81;27448;-73
2021/07/25 03:13:08;;;;;;;24.50;13.75;;;;;;;18.31;58.69;100358.56;1724544;82;25763;-73
2021/07/25 03:15:34;;;;;;;24.60;15.43;;;;;;;18.27;58.80;100357.08;1731460;82;25861;-73
2021/07/25 03:18:00;;;;;;;21.23;14.65;;;;;;;18.23;58.84;100348.81;1726390;81;26591;-73
2021/07/25 03:20:26;;;;;;;22.82;14.35;;;;;;;18.20;59.03;100350.45;1725490;81;25711;-73
2021/07/25 03:22:53;;;;;;;25.35;15.35;;;;;;;18.18;59.09;100344.28;1721163;81;28107;-73
2021/07/25 03:25:19;;;;;;;21.70;15.28;;;;;;;18.14;59.14;100339.09;1726062;81;25811;-74
2021/07/25 03:27:45;;;;;;;21.80;14.78;;;;;;;18.14;59.27;100343.66;1655300;84;25362;-74
2021/07/25 03:30:12;;;;;;;26.95;15.72;;;;;;;18.14;59.36;100351.30;1686277;83;25821;-73
2021/07/25 03:32:38;;;;;;;24.75;15.70;;;;;;;18.14;59.38;100347.73;1712691;82;25734;-73
2021/07/25 03:35:04;;;;;;;21.10;15.10;;;;;;;18.13;59.49;100352.30;1714589;81;28121;-73
2021/07/25 03:37:30;;;;;;;25.40;16.10;;;;;;;18.12;59.61;100350.56;1727288;81;25759;-73
2021/07/25 03:39:56;;;;;;;23.98;15.28;;;;;;;18.14;59.66;100357.22;1687077;83;25754;-73
2021/07/25 03:42:23;;;;;;;24.52;15.53;;;;;;;18.14;59.75;100357.22;1712129;82;26118;-73
2021/07/25 03:44:49;;;;;;;22.50;14.75;;;;;;;18.15;59.80;100355.75;1717236;82;25878;-72
2021/07/25 03:47:16;;;;;;;24.90;16.27;;;;;;;18.16;59.82;100364.75;1709854;81;28125;-72
2021/07/25 03:49:43;;;;;;;19.35;14.38;;;;;;;18.16;59.89;100364.75;1652613;83;26306;-72
2021/07/25 03:52:14;;;;;;;25.68;15.58;;;;;;;18.15;59.95;100369.31;1703843;82;25859;-73
2021/07/25 03:54:42;;;;;;;19.98;15.15;;;;;;;18.15;60.06;100372.02;1700643;83;25981;-72
2021/07/25 03:57:09;;;;;;;23.87;15.40;;;;;;;18.16;60.10;100364.75;1653267;84;26094;-72
2021/07/25 03:59:37;;;;;;;24.02;15.20;;;;;;;18.18;60.15;100361.42;1713827;81;27476;-72
2021/07/25 04:02:04;;;;;;;26.62;15.30;;;;;;;18.18;60.21;100368.20;1707570;81;25806;-73
2021/07/25 04:04:31;;;;;;;21.97;14.87;;;;;;;18.21;60.29;100359.78;1725375;81;26416;-72
2021/07/25 04:06:57;;;;;;;24.55;15.15;;;;;;;18.24;60.34;100365.46;1724216;80;25762;-72
2021/07/25 04:09:23;;;;;;;24.63;14.50;;;;;;;18.27;60.43;100363.37;1731106;80;25850;-72
2021/07/25 04:11:54;;;;;;;21.90;15.68;;;;;;;18.32;60.48;100366.58;1733069;80;27402;-72
2021/07/25 04:14:21;;;;;;;24.40;15.43;;;;;;;18.37;60.52;100360.78;1713154;81;26665;-72
2021/07/25 04:16:48;;;;;;;21.65;14.63;;;;;;;18.41;60.56;100362.27;1729179;80;25857;-72
2021/07/25 04:19:14;;;;;;;23.77;14.15;;;;;;;18.45;60.55;100355.60;1731370;80;25819;-73
2021/07/25 04:21:40;;;;;;;26.15;16.35;;;;;;;18.47;60.54;100354.48;1728362;80;26590;-73
2021/07/25 04:24:06;;;;;;;20.70;14.95;;;;;;;18.51;60.59;100353.75;1728749;80;27431;-72
2021/07/25 04:26:33;;;;;;;26.62;15.03;;;;;;;18.56;60.60;100357.45;1729988;81;25698;-73
2021/07/25 04:28:59;;;;;;;23.73;14.47;;;;;;;18.60;60.65;100349.42;1732883;80;25783;-72
2021/07/25 04:31:25;;;;;;;19.87;15.20;;;;;;;18.66;60.62;100348.95;1724986;80;25839;-72
2021/07/25 04:33:54;;;;;;;24.55;14.98;;;;;;;18.70;60.62;100350.44;1718564;80;26119;-72
2021/07/25 04:36:27;;;;;;;22.50;14.75;;;;;;;18.71;60.66;100343.52;1730728;80;28272;-72
2021/07/25 04:38:58;;;;;;;23.80;15.50;;;;;;;18.76;60.68;100337.72;1734194;80;25743;-73
2021/07/25 04:41:28;;;;;;;22.20;13.78;;;;;;;18.80;60.70;100337.34;1730283;80;25733;-72
2021/07/25 04:44:11;;;;;;;24.05;15.25;;;;;;;18.86;60.71;100345.47;1728021;80;26357;-73
2021/07/25 04:46:43;;;;;;;22.93;14.63;;;;;;;18.91;60.72;100344.59;1681309;80;25825;-72
2021/07/25 04:49:12;;;;;;;27.35;14.10;;;;;;;19.01;60.72;100340.62;1705973;81;27482;-72
2021/07/25 04:51:41;;;;;;;25.30;14.63;;;;;;;19.08;60.63;100348.63;1728817;80;26585;-72
2021/07/25 04:54:11;;;;;;;19.77;13.90;;;;;;;19.07;60.66;100330.11;1717162;80;25830;-73
2021/07/25 04:56:57;;;;;;;22.50;15.70;;;;;;;19.19;60.60;100336.86;1734528;80;25854;-72
2021/07/25 04:59:30;;;;;;;21.27;14.47;;;;;;;19.24;60.62;100337.34;1732556;80;25865;-72
2021/07/25 05:02:08;;;;;;;23.52;15.58;;;;;;;19.32;60.60;100344.35;1729493;80;27387;-72
2021/07/25 05:04:29;;;;;;;24.47;14.28;;;;;;;19.35;60.54;100338.66;1726897;80;26425;-72
2021/07/25 05:06:55;;;;;;;24.45;15.08;;;;;;;19.38;60.54;100341.11;1728808;80;25801;-72
2021/07/25 05:09:22;;;;;;;24.40;13.25;;;;;;;19.43;60.54;100345.16;1732216;80;26237;-72
2021/07/25 05:12:16;;;;;;;22.67;14.65;;;;;;;19.50;60.55;100345.51;1742464;80;25820;-72
2021/07/25 05:15:05;;;;;;;20.82;14.60;;;;;;;19.57;60.56;100346.74;1740302;80;27394;-72
2021/07/25 05:17:58;;;;;;;22.13;14.43;;;;;;;19.67;60.51;100346.81;1725194;80;25892;-72
2021/07/25 05:21:01;;;;;;;21.40;14.53;;;;;;;19.76;60.46;100344.66;1727001;81;25757;-72
2021/07/25 05:23:32;;;;;;;19.82;14.30;;;;;;;19.84;60.44;100342.64;1717161;80;25810;-72
2021/07/25 05:25:58;;;;;;;24.43;14.58;;;;;;;19.94;60.40;100344.92;1700338;82;25738;-72
2021/07/25 05:28:27;;;;;;;20.82;13.78;;;;;;;20.03;60.33;100346.84;1704192;82;27483;-72
2021/07/25 05:30:56;;;;;;;23.22;14.47;;;;;;;20.10;60.34;100346.17;1700457;82;25782;-72
2021/07/25 05:33:23;;;;;;;27.60;15.60;;;;;;;20.23;60.25;100347.31;1718655;82;25811;-72
2021/07/25 05:35:50;;;;;;;26.15;14.15;;;;;;;20.35;60.16;100343.51;1728520;80;25761;-72
2021/07/25 05:38:18;;;;;;;22.50;14.40;;;;;;;20.46;60.13;100339.86;1730926;80;25798;-72
2021/07/25 05:40:44;;;;;;;23.02;12.93;;;;;;;20.58;60.06;100339.27;1703430;80;27449;-72
2021/07/25 05:43:11;;;;;;;22.40;15.05;;;;;;;20.71;59.99;100339.88;1731548;80;25805;-73
2021/07/25 05:45:38;;;;;;;19.30;14.85;;;;;;;20.80;59.92;100336.33;1703304;81;25786;-73
2021/07/25 05:48:05;;;;;;;21.65;14.63;;;;;;;20.95;59.87;100335.39;1711414;80;26304;-73
2021/07/25 05:50:30;;;;;;;24.95;14.30;;;;;;;21.06;59.74;100332.05;1730882;80;25982;-73
2021/07/25 05:52:58;;;;;;;21.42;14.80;;;;;;;21.15;59.62;100330.33;1723595;80;27394;-73
2021/07/25 05:55:30;;;;;;;19.92;13.88;;;;;;;21.23;59.54;100329.16;1731923;80;25876;-73
2021/07/25 05:57:58;;;;;;;23.40;14.50;;;;;;;21.30;59.46;100328.95;1729549;80;36572;-73
2021/07/25 06:00:24;;;;;;;28.27;15.25;;;;;;;21.33;59.35;100329.16;1732539;80;26364;-73
2021/07/25 06:02:59;;;;;;;21.52;14.90;;;;;;;21.41;59.32;100336.13;1737544;80;25819;-73
2021/07/25 06:05:37;;;;;;;21.45;14.28;;;;;;;21.47;59.18;100334.19;1725651;80;27380;-73
2021/07/25 06:08:08;;;;;;;19.50;13.05;;;;;;;21.56;59.10;100337.41;1734762;80;25841;-72
2021/07/25 06:10:41;;;;;;;23.25;14.58;;;;;;;21.68;59.09;100339.48;1735268;81;26501;-73
2021/07/25 06:13:08;;;;;;;21.42;13.53;;;;;;;21.79;58.99;100340.69;1723134;82;25945;-72
2021/07/25 06:15:35;;;;;;;23.75;14.53;;;;;;;21.94;58.90;100337.87;1735205;80;26461;-72
2021/07/25 06:18:02;;;;;;;19.75;14.25;;;;;;;22.12;58.75;100343.46;1737235;81;27450;-72
2021/07/25 06:20:29;;;;;;;18.87;13.10;;;;;;;22.21;58.63;100338.48;1744586;80;25754;-73
2021/07/25 06:22:57;;;;;;;19.05;13.83;;;;;;;22.34;58.57;100340.88;1743434;80;25996;-73
2021/07/25 06:25:28;;;;;;;18.67;12.82;;;;;;;22.41;58.44;100338.41;1741112;80;25913;-72
2021/07/25 06:27:58;;;;;;;21.90;14.13;;;;;;;22.54;58.41;100334.83;1740344;80;25683;-71
2021/07/25 06:30:26;;;;;;;19.47;12.83;;;;;;;22.63;58.27;100333.42;1739817;81;28000;-72
2021/07/25 06:33:02;;;;;;;24.55;13.32;;;;;;;22.73;58.19;100326.55;1740571;80;26487;-71
2021/07/25 06:35:38;;;;;;;20.08;13.90;;;;;;;22.84;58.04;100326.37;1734223;80;25747;-72
2021/07/25 06:38:11;;;;;;;23.67;13.18;;;;;;;23.02;57.42;100323.66;1727840;80;26550;-72
2021/07/25 06:40:41;;;;;;;19.50;12.88;;;;;;;23.02;57.42;100323.66;1742234;80;26432;-72
2021/07/25 06:43:07;;;;;;;21.80;13.80;;;;;;;23.12;57.65;100317.63;1729719;80;28593;-71
2021/07/25 06:45:34;;;;;;;22.90;13.93;;;;;;;23.24;57.45;100319.12;1733319;80;25837;-72
2021/07/25 06:48:00;;;;;;;19.02;13.43;;;;;;;23.37;57.34;100324.20;1737108;80;25774;-72
2021/07/25 06:50:28;;;;;;;24.77;12.37;;;;;;;23.46;57.14;100323.22;1738006;80;25716;-72
2021/07/25 06:52:56;;;;;;;22.17;13.53;;;;;;;23.57;56.93;100322.16;1729721;80;26428;-72
2021/07/25 06:55:25;;;;;;;20.15;13.10;;;;;;;23.67;56.82;100323.44;1712582;82;27454;-72
2021/07/25 06:57:52;;;;;;;18.73;12.47;;;;;;;23.79;56.66;100316.69;1733362;80;25863;-72
2021/07/25 07:00:18;;;;;;;16.23;11.70;;;;;;;23.93;56.48;100322.45;1740838;80;25817;-72
2021/07/25 07:02:50;;;;;;;19.07;13.00;;;;;;;24.08;56.26;100325.97;1741657;80;26505;-72
2021/07/25 07:05:22;;;;;;;15.13;11.73;;;;;;;24.24;56.09;100322.82;1729455;80;25854;-72
2021/07/25 07:07:51;;;;;;;19.30;12.37;;;;;;;24.47;55.86;100323.66;1733234;80;27379;-72
2021/07/25 07:10:23;;;;;;;17.32;12.43;;;;;;;24.68;55.60;100323.25;1703723;82;26512;-72
2021/07/25 07:12:51;;;;;;;18.55;12.53;;;;;;;24.82;55.30;100317.98;1674629;83;25763;-72
2021/07/25 07:15:18;;;;;;;17.48;12.15;;;;;;;24.97;54.98;100320.98;1710170;82;26259;-72
2021/07/25 07:17:46;;;;;;;19.02;11.55;;;;;;;25.13;54.70;100320.16;1713709;82;26192;-71
2021/07/25 07:20:12;;;;;;;17.40;11.55;;;;;;;25.23;54.37;100311.27;1666347;83;28078;-72
2021/07/25 07:22:39;;;;;;;16.75;11.45;;;;;;;25.32;54.08;100321.23;1674101;83;25791;-71
2021/07/25 07:25:07;;;;;;;23.00;13.03;;;;;;;25.37;53.68;100317.47;1685680;82;25956;-72
2021/07/25 07:27:34;;;;;;;18.77;11.75;;;;;;;25.36;53.38;100315.75;1706864;82;25821;-72
2021/07/25 07:30:01;;;;;;;17.00;12.07;;;;;;;25.40;53.21;100315.75;1677706;83;25901;-72
2021/07/25 07:32:27;;;;;;;21.42;12.23;;;;;;;25.45;52.90;100320.73;1683458;82;27427;-72
2021/07/25 07:34:55;;;;;;;16.32;11.73;;;;;;;25.44;52.76;100317.64;1689839;83;25986;-73
2021/07/25 07:37:21;;;;;;;17.67;11.50;;;;;;;25.48;52.52;100314.39;1703175;82;25849;-73
2021/07/25 07:39:46;;;;;;;20.02;12.68;;;;;;;25.51;52.36;100311.81;1691252;82;25880;-72
2021/07/25 07:42:13;;;;;;;21.12;12.10;;;;;;;25.58;52.24;100306.50;1709388;82;25962;-72
2021/07/25 07:44:40;;;;;;;21.87;11.60;;;;;;;25.63;52.04;100305.47;1689529;82;28232;-72
2021/07/25 07:47:06;;;;;;;20.62;11.78;;;;;;;25.63;51.91;100302.21;1685864;82;26334;-73
2021/07/25 07:49:32;;;;;;;16.55;11.18;;;;;;;25.64;51.77;100303.07;1700100;82;26324;-72
2021/07/25 07:51:58;;;;;;;18.60;11.65;;;;;;;25.64;51.61;100307.19;1707001;82;26321;-72
2021/07/25 07:54:23;;;;;;;16.52;12.05;;;;;;;25.64;51.41;100305.81;1700462;82;25931;-72
2021/07/25 07:56:49;;;;;;;15.70;11.08;;;;;;;25.60;51.44;100316.28;1696294;82;27389;-72
2021/07/25 07:59:15;;;;;;;15.15;11.40;;;;;;;25.66;51.44;100313.39;1709192;82;26564;-73
2021/07/25 08:01:41;;;;;;;15.55;11.10;;;;;;;25.80;51.29;100323.69;1709791;82;26346;-72
2021/07/25 08:04:07;;;;;;;18.98;11.93;;;;;;;25.87;51.02;100315.96;1698503;82;25881;-73
2021/07/25 08:06:33;;;;;;;18.37;12.25;;;;;;;25.87;51.02;100318.70;1704582;82;25788;-72
2021/07/25 08:08:59;;;;;;;17.10;11.68;;;;;;;25.96;50.93;100323.67;1712005;81;27461;-72
2021/07/25 08:11:28;;;;;;;12.73;10.68;;;;;;;26.02;50.84;100321.58;1732658;80;25851;-73
2021/07/25 08:13:53;;;;;;;16.15;11.93;;;;;;;26.11;50.76;100322.42;1729724;80;26547;-72
2021/07/25 08:16:19;;;;;;;15.45;12.13;;;;;;;26.17;50.76;100320.34;1726450;80;25854;-72
2021/07/25 08:18:46;;;;;;;14.60;11.63;;;;;;;26.27;50.63;100315.52;1689503;82;25875;-73
2021/07/25 08:21:12;;;;;;;17.62;12.60;;;;;;;26.26;50.42;100321.19;1701241;82;27543;-72
2021/07/25 08:23:40;;;;;;;15.03;12.58;;;;;;;26.28;50.39;100310.88;1715247;81;25974;-72
2021/07/25 08:26:05;;;;;;;16.10;10.85;;;;;;;26.31;50.25;100311.90;1717140;81;26445;-72
2021/07/25 08:28:31;;;;;;;19.32;11.30;;;;;;;26.35;50.34;100307.28;1722450;80;25974;-72
2021/07/25 08:30:59;;;;;;;15.28;12.33;;;;;;;26.45;50.28;100306.56;1728837;80;25815;-72
2021/07/25 08:33:26;;;;;;;18.80;11.90;;;;;;;26.55;50.21;100306.88;1710309;81;27320;-72
2021/07/25 08:35:51;;;;;;;16.00;11.75;;;;;;;26.70;50.20;100303.20;1725851;82;25737;-72
2021/07/25 08:38:18;;;;;;;17.35;11.75;;;;;;;26.89;50.14;100303.80;1722706;82;25818;-72
2021/07/25 08:40:49;;;;;;;14.87;11.55;;;;;;;27.06;50.00;100295.30;1727111;81;25890;-72
2021/07/25 08:43:18;;;;;;;15.65;12.10;;;;;;;27.24;49.89;100291.41;1731319;80;25892;-72
2021/07/25 08:45:44;;;;;;;16.57;11.40;;;;;;;27.32;49.55;100289.45;1732232;80;27441;-72
2021/07/25 08:48:14;;;;;;;13.72;10.68;;;;;;;27.36;49.37;100295.44;1698066;82;26186;-72
2021/07/25 08:50:49;;;;;;;12.85;10.35;;;;;;;27.53;49.29;100291.52;1694011;82;26062;-72
2021/07/25 08:53:18;;;;;;;16.45;9.68;;;;;;;27.68;49.08;100291.60;1730118;80;25869;-72
2021/07/25 08:55:46;;;;;;;20.70;10.40;;;;;;;27.87;48.92;100289.70;1732522;80;26433;-72
2021/07/25 08:58:14;;;;;;;13.65;9.58;;;;;;;28.09;48.71;100287.41;1729102;80;27425;-72
2021/07/25 09:00:40;;;;;;;18.32;10.30;;;;;;;28.31;48.42;100286.17;1732291;80;25839;-72
2021/07/25 09:03:09;;;;;;;15.13;10.20;;;;;;;28.50;48.23;100285.59;1728905;81;26309;-73
2021/07/25 09:05:36;;;;;;;14.28;10.00;;;;;;;28.66;47.84;100285.88;1731906;80;26362;-72
2021/07/25 09:08:04;;;;;;;19.25;11.08;;;;;;;28.77;47.40;100282.11;1715413;80;25813;-72
2021/07/25 09:10:31;;;;;;;12.50;9.30;;;;;;;28.82;47.27;100287.05;1732895;80;27384;-72
2021/07/25 09:12:58;;;;;;;18.25;9.65;;;;;;;28.94;47.04;100290.19;1725270;82;26361;-72
2021/07/25 09:15:34;;;;;;;14.63;9.63;;;;;;;29.06;46.81;100289.49;1721858;81;25963;-72
2021/07/25 09:18:02;;;;;;;21.23;11.80;;;;;;;29.18;46.63;100283.45;1724323;81;26644;-72
2021/07/25 09:20:36;;;;;;;16.45;10.28;;;;;;;29.29;46.37;100286.56;1724407;81;25870;-73
2021/07/25 09:23:15;;;;;;;13.55;10.18;;;;;;;29.38;46.20;100285.91;1718130;80;27392;-73
2021/07/25 09:25:49;;;;;;;12.20;9.93;;;;;;;29.44;45.95;100291.20;1730152;80;25862;-73
2021/07/25 09:28:20;;;;;;;16.45;10.03;;;;;;;29.43;45.59;100289.48;1722973;81;26294;-73
2021/07/25 09:30:46;;;;;;;16.35;10.78;;;;;;;29.44;45.48;100291.20;1731424;80;25815;-73
2021/07/25 09:33:26;;;;;;;17.15;10.90;;;;;;;29.50;45.36;100287.64;1734968;80;25770;-73
2021/07/25 09:36:01;;;;;;;16.25;10.70;;;;;;;29.53;45.08;100289.48;1716675;80;28039;-71
2021/07/25 09:38:28;;;;;;;21.55;10.80;;;;;;;29.52;44.92;100286.92;1726428;80;26510;-73
2021/07/25 09:40:54;;;;;;;17.52;10.28;;;;;;;29.41;44.60;100287.74;1720158;81;26799;-72
2021/07/25 09:43:25;;;;;;;17.12;10.15;;;;;;;29.31;44.42;100291.36;1727282;80;26445;-72
2021/07/25 09:45:55;;;;;;;17.92;10.30;;;;;;;29.33;44.50;100279.59;1718751;80;25814;-72
2021/07/25 09:48:30;;;;;;;13.93;9.90;;;;;;;29.45;44.30;100276.34;1729638;80;28075;-73
2021/07/25 09:51:18;;;;;;;13.60;8.93;;;;;;;29.37;44.20;100257.44;1732599;80;25767;-73
2021/07/25 09:53:49;;;;;;;19.30;10.23;;;;;;;29.63;44.02;100283.63;1733194;80;25927;-73
2021/07/25 09:56:17;;;;;;;13.80;9.78;;;;;;;29.51;43.39;100281.06;1717201;82;25778;-73
2021/07/25 09:58:44;;;;;;;11.68;10.23;;;;;;;29.47;43.19;100280.61;1722317;80;26015;-73
2021/07/25 10:01:13;;;;;;;14.30;10.08;;;;;;;29.51;43.18;100285.21;1728387;80;27504;-73
2021/07/25 10:03:39;;;;;;;18.82;10.08;;;;;;;29.60;43.11;100281.27;1711429;80;25963;-73
2021/07/25 10:06:23;;;;;;;16.90;10.18;;;;;;;29.76;42.96;100280.98;1711908;81;25961;-73
2021/07/25 10:09:10;;;;;;;24.07;9.93;;;;;;;29.86;42.79;100278.72;1715928;80;25902;-73
2021/07/25 10:11:38;;;;;;;15.65;10.03;;;;;;;29.86;42.56;100285.63;1701718;82;26540;-73
2021/07/25 10:14:04;;;;;;;15.32;10.60;;;;;;;29.91;42.54;100280.36;1693628;82;27358;-73
2021/07/25 10:16:30;;;;;;;19.85;9.98;;;;;;;29.95;42.34;100279.42;1694960;82;25807;-73
2021/07/25 10:18:58;;;;;;;16.20;10.60;;;;;;;29.99;42.13;100282.11;1703126;82;25779;-73
2021/07/25 10:21:25;;;;;;;19.40;10.95;;;;;;;30.02;42.05;100280.36;1691191;83;26485;-73
2021/07/25 10:23:57;;;;;;;16.50;10.35;;;;;;;30.06;41.97;100286.34;1684979;83;26558;-73
2021/07/25 10:26:28;;;;;;;19.48;11.25;;;;;;;30.14;41.80;100284.80;1696058;83;27389;-73
2021/07/25 10:28:57;;;;;;;17.90;11.15;;;;;;;30.15;41.49;100289.28;1687217;82;25851;-73
2021/07/25 10:31:26;;;;;;;14.73;10.85;;;;;;;30.02;41.44;100289.51;1686651;80;25818;-72
2021/07/25 10:33:53;;;;;;;13.88;10.68;;;;;;;30.05;41.46;100288.25;1721061;82;26569;-73
2021/07/25 10:36:22;;;;;;;17.35;10.55;;;;;;;30.10;41.40;100282.12;1713035;82;25786;-73
2021/07/25 10:38:48;;;;;;;14.03;9.78;;;;;;;30.19;41.36;100287.81;1689770;83;27382;-72
2021/07/25 10:41:26;;;;;;;16.35;10.43;;;;;;;30.16;40.97;100295.98;1687248;83;25801;-73
2021/07/25 10:43:52;;;;;;;13.35;11.12;;;;;;;30.00;40.90;100286.59;1701827;82;25780;-73
2021/07/25 10:46:21;;;;;;;18.67;10.35;;;;;;;29.91;40.83;100288.64;1663812;84;26280;-72
2021/07/25 10:49:09;;;;;;;19.75;12.13;;;;;;;29.83;40.75;100286.56;1702758;82;25749;-73
2021/07/25 10:51:35;;;;;;;17.12;10.68;;;;;;;29.76;40.68;100290.64;1662087;83;27676;-72
2021/07/25 10:54:28;;;;;;;15.43;10.08;;;;;;;29.76;40.57;100291.17;1708569;82;26439;-72
2021/07/25 10:57:09;;;;;;;15.28;10.65;;;;;;;29.65;40.56;100287.05;1699113;82;26615;-72
2021/07/25 10:59:55;;;;;;;16.42;11.28;;;;;;;29.60;40.62;100294.55;1703065;80;26301;-72
2021/07/25 11:02:28;;;;;;;18.32;11.08;;;;;;;29.52;40.47;100294.67;1694692;82;26432;-71
2021/07/25 11:05:00;;;;;;;15.08;10.32;;;;;;;29.47;40.47;100295.80;1701634;82;27467;-73
2021/07/25 11:07:33;;;;;;;16.00;10.72;;;;;;;29.31;40.28;100297.41;1701563;82;26414;-73
2021/07/25 11:10:05;;;;;;;15.40;10.63;;;;;;;29.30;40.44;100303.45;1719320;80;25780;-74
2021/07/25 11:12:55;;;;;;;17.17;11.63;;;;;;;29.25;40.35;100302.33;1732960;80;26396;-75
2021/07/25 11:15:32;;;;;;;15.40;10.05;;;;;;;29.19;40.52;100304.48;1727796;80;25770;-72
2021/07/25 11:18:05;;;;;;;19.42;11.03;;;;;;;29.15;40.49;100308.17;1732052;80;27952;-74